x

Muskegon, Mi (mkgm4) Weather Station

6:45am - Mon 29th Dec 2014 All times are CST. -6 hours from GMT.

  • Wind
    8mph, 10mph gusts
  • Air Temp 24°f
  • Sea Pressure 1029.1mb
  • Muskegon, Mi
  • Muskegon, Mi

More Historic Weather Station data

Upgrade to MSW Pro to gain access to the past 30 days of data for over 8000 Wavebouys and Weather Stations around the globe.

Join Pro

Comparision Forecast

View Surf forecast
   
Mon 12/29 6:45am 8 10 mph 1029.1mb 24f
6:30am 8 11 mph 1029mb 24f
6:15am 8 10 mph 1028.8mb 24f
6:00am 9 10 mph 1028.6mb 24f
5:45am 9 11 mph 1028.2mb 24f
5:30am 8 10 mph 1028.1mb 25f
5:15am 10 13 mph 1027.9mb 25f
5:00am 9 13 mph 1027.7mb 25f
4:45am 8 11 mph 1027.5mb 25f
4:30am 8 11 mph 1027.2mb 26f
4:15am 8 10 mph 1027.2mb 26f
4:00am 10 15 mph 1027.1mb 26f
3:45am 10 14 mph 1027.3mb 26f
3:30am 9 14 mph 1027.4mb 27f
3:15am 9 10 mph 1027.4mb 27f
3:00am 10 14 mph 1027.4mb 27f
2:45am 9 13 mph 1027.2mb 27f
2:30am 9 13 mph 1027.1mb 27f
2:15am 11 15 mph 1026.9mb 27f
2:00am 11 14 mph 1026.8mb 28f
1:45am 9 15 mph 1026.5mb 28f
1:30am 10 17 mph 1026.5mb 28f
1:15am 13 17 mph 1026.2mb 28f
1:00am 13 16 mph 1026.1mb 28f
12:45am 11 15 mph 1026mb 29f
12:30am 13 16 mph 1025.9mb 29f
12:15am 11 16 mph 1026mb 29f
12:00am 9 11 mph 1025.6mb 30f
Sun 12/28 11:45pm 6 8 mph 1025.6mb 30f
11:30pm 10 14 mph 1025.5mb 30f
11:15pm 9 14 mph 1025.5mb 30f
11:00pm 8 17 mph 1025.4mb 30f
10:45pm 7 9 mph 1025.3mb 30f
10:30pm 6 9 mph 1025.1mb 31f
10:15pm 9 11 mph 1025.1mb 31f
10:00pm 11 18 mph 1025mb 31f
9:45pm 15 18 mph 1024.9mb 31f
9:30pm 14 20 mph 1025mb 31f
9:15pm 5 7 mph 1024.8mb 30f
9:00pm 5 7 mph 1024.8mb 30f
8:45pm 5 6 mph 1024.8mb 30f
8:30pm 6 7 mph 1024.7mb 30f
8:15pm 5 7 mph 1024.6mb 30f
8:00pm 6 8 mph 1024.5mb 30f
7:45pm 14 17 mph 1024.1mb 31f
7:30pm 15 17 mph 1024.1mb 31f
7:15pm 15 17 mph 1024.1mb 31f
7:00pm 11 14 mph 1024mb 31f
6:45pm 14 16 mph 1023.9mb 31f
6:30pm 14 16 mph 1023.8mb 31f
6:15pm 13 16 mph 1023.5mb 31f
6:00pm 13 16 mph 1023.5mb 31f
5:45pm 15 17 mph 1023.4mb 31f
5:30pm 13 16 mph 1023.2mb 32f
5:15pm 13 16 mph 1023.2mb 32f
5:00pm 11 15 mph 1023.2mb 31f
4:45pm 13 15 mph 1023.1mb 31f
4:30pm 13 15 mph 1023mb 31f
4:15pm 11 16 mph 1022.9mb 31f
4:00pm 11 15 mph 1022.8mb 31f
3:45pm 11 14 mph 1022.7mb 31f
3:30pm 11 14 mph 1022.6mb 32f
3:15pm 11 14 mph 1022.4mb 32f
3:00pm 11 14 mph 1022.3mb 32f
2:45pm 11 14 mph 1022.1mb 32f
2:30pm 11 14 mph 1021.9mb 33f
2:15pm 11 15 mph 1021.7mb 32f
2:00pm 9 10 mph 1021.6mb 32f
1:45pm 13 16 mph 1021.6mb 31f
1:30pm 14 16 mph 1021.5mb 31f
1:15pm 14 16 mph 1021.5mb 31f
1:00pm 15 18 mph 1021.5mb 32f
12:45pm 13 14 mph 1021.3mb 31f
12:30pm 13 15 mph 1021.4mb 32f
12:15pm 14 16 mph 1021.5mb 32f
12:00pm 11 14 mph 1021.7mb 32f
11:45am 13 15 mph 1022mb 32f
11:30am 13 15 mph 1022.1mb 32f
11:15am 11 15 mph 1022.2mb 32f
11:00am 13 16 mph 1022.2mb 32f
10:45am 10 15 mph 1022.2mb 32f
10:30am 11 15 mph 1022.3mb 32f
10:15am 11 15 mph 1022.2mb 32f
10:00am 13 15 mph 1022.2mb 32f
9:45am 11 14 mph 1022.1mb 32f
9:30am 13 15 mph 1022mb 32f
9:15am 13 14 mph 1021.7mb 32f
9:00am 13 15 mph 1021.7mb 32f
8:45am 13 15 mph 1021.6mb 31f
8:30am 14 16 mph 1021.3mb 31f
8:15am 14 17 mph 1021.5mb 31f
8:00am 11 13 mph 1021.1mb 31f
7:45am 11 14 mph 1020.9mb 31f
7:30am 13 15 mph 1020.7mb 31f
7:15am 14 16 mph 1020.8mb 31f
7:00am 15 16 mph 1020.9mb 31f
6:45am 16 18 mph 1021.1mb 31f
6:30am 15 21 mph 1021.1mb 31f
6:15am 17 21 mph 1021mb 31f
6:00am 17 21 mph 1021mb 31f
5:45am 16 20 mph 1020.8mb 31f
5:30am 17 21 mph 1020.6mb 31f
5:15am 16 20 mph 1020.5mb 32f
5:00am 16 21 mph 1020.3mb 32f
4:45am 16 18 mph 1020mb 32f
4:30am 15 17 mph 1019.8mb 32f
4:15am 17 20 mph 1019.8mb 32f
4:00am 16 20 mph 1019.6mb 32f
3:45am 16 21 mph 1019.8mb 32f
3:30am 15 18 mph 1019.7mb 32f
3:15am 18 21 mph 1019.5mb 32f
3:00am 16 20 mph 1019.7mb 32f
2:45am 20 24 mph 1019.9mb 33f
2:30am 22 24 mph 1020mb 33f
2:15am 21 22 mph 1019.9mb 33f
2:00am 23 26 mph 1019.4mb 34f
1:45am 23 26 mph 1019.2mb 34f
1:30am 22 24 mph 1018.9mb 34f
1:15am 24 26 mph 1018.7mb 34f
1:00am 25 29 mph 1018.6mb 34f
12:45am 24 26 mph 1018.4mb 34f
12:30am 24 28 mph 1018.4mb 35f
12:15am 24 29 mph 1018.2mb 35f
12:00am 24 26 mph 1018.1mb 35f
Sat 12/27 11:45pm 25 28 mph 1018.1mb 35f
11:30pm 24 28 mph 1018.2mb 36f
11:15pm 24 28 mph 1018.4mb 35f
11:00pm 23 26 mph 1018.3mb 35f
10:45pm 17 20 mph 1018.6mb 34f
10:30pm 13 18 mph 1018.6mb 35f
10:15pm 16 17 mph 1018.5mb 35f
10:00pm 13 15 mph 1018.5mb 35f
9:45pm 17 20 mph 1018.2mb 35f
9:30pm 21 23 mph 1018.1mb 36f
9:15pm 21 23 mph 1017.9mb 35f
9:00pm 24 26 mph 1017.8mb 36f
8:45pm 25 28 mph 1017.9mb 36f
8:30pm 22 25 mph 1017.3mb 37f
8:15pm 24 26 mph 1017.3mb 37f
8:00pm 23 26 mph 1017.3mb 37f
7:45pm 24 28 mph 1017.2mb 37f
7:30pm 24 28 mph 1017.2mb 37f
7:15pm 26 29 mph 1017.5mb 37f
7:00pm 24 26 mph 1017.6mb 37f
6:45pm 22 24 mph 1017.3mb 37f
6:30pm 24 30 mph 1016.8mb 37f
6:15pm 26 31 mph 1017mb 37f
6:00pm 26 30 mph 1017mb 37f
5:45pm 29 33 mph 1016.8mb 37f
5:30pm 29 32 mph 1016.6mb 37f
5:15pm 30 33 mph 1016.6mb 37f
5:00pm 29 34 mph 1016.3mb 38f
4:45pm 24 28 mph 1016.4mb 38f
4:30pm 25 30 mph 1016.5mb 38f
4:15pm 28 31 mph 1016.5mb 38f
4:00pm 26 30 mph 1016.4mb 38f
3:45pm 29 33 mph 1016.2mb 38f
3:30pm 29 32 mph 1016mb 38f
3:15pm 30 34 mph 1015.4mb 38f
3:00pm 30 34 mph 1015.2mb 39f
2:45pm 32 36 mph 1014.7mb 39f
2:30pm 32 37 mph 1014.1mb 40f
2:15pm 30 37 mph 1013.1mb 40f
2:00pm 30 34 mph 1013.1mb 41f
1:45pm 30 36 mph 1013mb 41f
1:30pm 28 32 mph 1012.9mb 42f
1:15pm 30 33 mph 1012.6mb 42f
1:00pm 30 36 mph 1012.1mb 42f
12:45pm 29 32 mph 1011.9mb 42f
12:30pm 30 34 mph 1012.1mb 42f
12:15pm 32 37 mph 1012.7mb 42f
12:00pm 31 33 mph 1012.3mb 42f
11:45am 31 36 mph 1012.5mb 42f
11:30am 31 36 mph 1012.3mb 42f
11:15am 31 36 mph 1012.4mb 42f
11:00am 31 38 mph 1013.2mb 42f
10:45am 29 32 mph 1013.7mb 41f
10:30am 26 29 mph 1013mb 42f
10:15am 26 30 mph 1013.7mb 41f
10:00am 28 29 mph 1013.6mb 42f
9:45am 26 29 mph 1014mb 41f
9:30am 25 30 mph 1014.1mb 41f
9:15am 26 29 mph 1014.5mb 41f
9:00am 25 29 mph 1014.6mb 41f
8:45am 24 26 mph 1014.2mb 41f
8:30am 24 25 mph 1014.1mb 42f
8:15am 23 25 mph 1014.8mb 42f
8:00am 24 26 mph 1014.7mb 42f
7:45am 23 24 mph 1015.1mb 42f
7:30am 22 24 mph 1014.8mb 42f
7:15am 22 25 mph 1015.4mb 42f
7:00am 23 25 mph 1015.6mb 42f
6:45am 24 26 mph 1015.4mb 42f
6:30am 22 25 mph 1015.4mb 42f
6:15am 20 21 mph 1015.5mb 41f
6:00am 20 21 mph 1015.4mb 41f
5:45am 20 22 mph 1014.9mb 40f
5:30am 20 22 mph 1014.9mb 40f
5:15am 17 18 mph 1015.5mb 40f
5:00am 18 20 mph 1015.8mb 40f
4:45am 18 21 mph 1015.9mb 41f
4:30am 18 20 mph 1016.2mb 40f
4:15am 17 18 mph 1016.2mb 40f
4:00am 17 18 mph 1016.4mb 41f
3:45am 17 18 mph 1016.4mb 41f
3:30am 17 18 mph 1016.8mb 40f
3:15am 16 17 mph 1017.1mb 40f
3:00am 17
mph
1017.2mb 40f
2:45am 15 16 mph 1017.1mb 40f
2:30am 14 15 mph 1017.4mb 41f
2:15am 15 16 mph 1017.5mb 41f
2:00am 13 15 mph 1017.5mb 42f
1:45am 10 11 mph 1017.8mb 40f
1:30am 11 13 mph 1017.9mb 40f
1:15am 15 17 mph 1017.7mb 40f
1:00am 13
mph
1017.8mb 40f
12:45am 14
mph
1017.8mb 41f
12:30am 10 13 mph 1017.8mb 40f
12:15am 10 11 mph 1017.9mb 40f
12:00am 13
mph
1017.9mb 40f
Fri 12/26 11:45pm 10 11 mph 1018mb 40f
11:30pm 9 10 mph 1018.1mb 41f
11:15pm 13 14 mph 1018mb 41f
11:00pm 10 11 mph 1018.2mb 42f
10:45pm 11
mph
1018.2mb 41f
10:30pm 9 10 mph 1018.3mb 41f
10:15pm 8 9 mph 1018.5mb 40f
10:00pm 9
mph
1018.5mb 40f
9:45pm 11 13 mph 1018.5mb 40f
9:30pm 13 14 mph 1018.3mb 40f
9:15pm 14 15 mph 1018.4mb 40f
9:00pm 14 15 mph 1018.3mb 40f
8:45pm 11 13 mph 1018.3mb 40f
8:30pm 13 14 mph 1018.2mb 40f
8:15pm 13 14 mph 1018.3mb 40f
8:00pm 14 15 mph 1018.4mb 40f
7:45pm 10 13 mph 1018.5mb 40f
7:30pm 15 17 mph 1018.4mb 41f
7:15pm 11 15 mph 1018.5mb 40f
7:00pm 9 10 mph 1018.5mb 40f
6:45pm 10 11 mph 1018.4mb 40f
6:30pm 11 13 mph 1018.4mb 40f
6:15pm 11
mph
1018.4mb 40f
6:00pm 11 13 mph 1018.5mb 39f
5:45pm 11 13 mph 1018.4mb 39f
5:30pm 13
mph
1018.2mb 39f
5:15pm 13 14 mph 1018mb 39f
5:00pm 11 13 mph 1018.1mb 39f
4:45pm 13
mph
1018mb 38f
4:30pm 13 14 mph 1018.1mb 38f
4:15pm 13 14 mph 1017.8mb 38f
4:00pm 14
mph
1017.7mb 39f
3:45pm 13 14 mph 1017.7mb 39f
3:30pm 13 14 mph 1017.8mb 40f
3:15pm 13 15 mph 1017.8mb 40f
3:00pm 13 15 mph 1017.6mb 41f
2:45pm 13 14 mph 1017.6mb 40f
2:30pm 14 15 mph 1017.4mb 40f
2:15pm 14 15 mph 1017mb 40f
2:00pm 15 16 mph 1017.2mb 40f
1:45pm 15 17 mph 1017.1mb 40f
1:30pm 16 17 mph 1017.1mb 40f
1:15pm 15 16 mph 1017mb 40f
1:00pm 17 18 mph 1017.1mb 41f
12:45pm 17 20 mph 1017.1mb 41f
12:30pm 18 21 mph 1017.1mb 41f
12:15pm 18 21 mph 1017.1mb 41f
12:00pm 17 20 mph 1017.5mb 41f
11:45am 20 22 mph 1017.5mb 41f
11:30am 20 22 mph 1017.6mb 41f
11:15am 21 22 mph 1017.7mb 41f
11:00am 20 22 mph 1017.8mb 41f
10:45am 17 21 mph 1018mb 41f
10:30am 18 20 mph 1018.4mb 41f
10:15am 18 20 mph 1018.5mb 40f
10:00am 17 20 mph 1018.6mb 40f
9:45am 18 20 mph 1018.6mb 40f
9:30am 18 20 mph 1018.6mb 40f
9:15am 20 21 mph 1018.5mb 40f
9:00am 21 22 mph 1018.2mb 40f
8:45am 21 23 mph 1018.2mb 39f
8:30am 20 22 mph 1018mb 39f
8:15am 21 24 mph 1018mb 39f
8:00am 20 22 mph 1017.9mb 39f
7:45am 20 22 mph 1017.7mb 39f
7:30am 22 25 mph 1017.7mb 39f
7:15am 23 26 mph 1017.5mb 39f
7:00am 21 24 mph 1017.5mb 39f
6:45am 22 24 mph 1017.5mb 39f
6:30am 22 26 mph 1017.7mb 39f
6:15am 23 25 mph 1017.7mb 39f
6:00am 22 25 mph 1017.6mb 40f
5:45am 23 26 mph 1017.4mb 40f
5:30am 22 24 mph 1017.2mb 39f
5:15am 22 25 mph 1017.2mb 39f
5:00am 22 24 mph 1017mb 39f
4:45am 22 23 mph 1017mb 39f
4:30am 22 25 mph 1017.1mb 39f
4:15am 21 24 mph 1017mb 39f
4:00am 22 24 mph 1017mb 39f
3:45am 22 23 mph 1016.9mb 39f
3:30am 21 23 mph 1017mb 39f
3:15am 20 22 mph 1017mb 39f
3:00am 21 22 mph 1017.2mb 39f
2:45am 22 24 mph 1017.7mb 39f
2:30am 22 24 mph 1017.8mb 39f
2:15am 22 24 mph 1017.8mb 39f
2:00am 21 24 mph 1018mb 39f
1:45am 22 24 mph 1018.2mb 39f
1:30am 20 22 mph 1018.2mb 39f
1:15am 20 22 mph 1018.1mb 39f
1:00am 22 24 mph 1017.9mb 39f
12:45am 22 24 mph 1017.8mb 39f
12:30am 23 26 mph 1017.7mb 39f
12:15am 23 26 mph 1017.9mb 39f
12:00am 22 23 mph 1017.9mb 39f
Thu 12/25 11:45pm 22 24 mph 1018.1mb 39f
11:30pm 22 24 mph 1017.9mb 39f
11:15pm 21 23 mph 1017.7mb 39f
11:00pm 22 25 mph 1017.8mb 39f
10:45pm 23 25 mph 1018mb 39f
10:30pm 23 26 mph 1017.8mb 39f
10:15pm 24 26 mph 1017.6mb 39f
10:00pm 24 28 mph 1017.3mb 39f
9:45pm 26 30 mph 1017.2mb 39f
9:30pm 26 30 mph 1016.9mb 39f
9:15pm 26 30 mph 1016.9mb 39f
9:00pm 26 30 mph 1016.8mb 39f
8:45pm 23 26 mph 1017.2mb 39f
8:30pm 23 25 mph 1017.3mb 39f
8:15pm 26 30 mph 1017.3mb 39f
8:00pm 23 26 mph 1017.2mb 38f
7:45pm 23 28 mph 1017.3mb 39f
7:30pm 24 28 mph 1017.1mb 39f
7:15pm 26 31 mph 1017mb 39f
7:00pm 25 28 mph 1017mb 39f
6:45pm 26 30 mph 1017.1mb 39f
6:30pm 22 25 mph 1016.9mb 38f
6:15pm 24 26 mph 1017.1mb 38f
6:00pm 24 28 mph 1016.9mb 38f
5:45pm 24 28 mph 1017mb 38f
5:30pm 24 28 mph 1016.9mb 38f
5:15pm 22 25 mph 1016.6mb 38f
5:00pm 24 28 mph 1016.6mb 38f
4:45pm 24 28 mph 1016.3mb 38f
4:30pm 24 28 mph 1016.4mb 38f
4:15pm 23 26 mph 1016.2mb 38f
4:00pm 23 28 mph 1016.1mb 38f
3:45pm 23 25 mph 1016.1mb 37f
3:30pm 22 25 mph 1015.7mb 38f
3:15pm 24 26 mph 1015.7mb 37f
3:00pm 24 26 mph 1015.9mb 37f
2:45pm 23 26 mph 1015.9mb 37f
2:30pm 26 29 mph 1016mb 37f
2:15pm 25 28 mph 1015.9mb 37f
2:00pm 24 29 mph 1015.6mb 37f